Time;durP1;ratioP1;P1;durP2;ratioP2;P2;SDS_P1;SDS_P2;PMS_P1;PMS_P2;Temp;Humidity;BMP_temperature;BMP_pressure;BME280_temperature;BME280_humidity;BME280_pressure;Samples;Min_cycle;Max_cycle;Signal;HPM_P1;HPM_P2
2022/11/30 00:00:55;;;;;;;4.55;3.28;;;12.00;99.90;;;;;;5052475;28;20059;-80
2022/11/30 00:03:24;;;;;;;4.95;3.60;;;11.90;99.90;;;;;;5052365;28;20172;-80
2022/11/30 00:05:51;;;;;;;5.97;3.53;;;11.90;99.90;;;;;;5052000;28;20055;-81
2022/11/30 00:08:48;;;;;;;5.05;3.53;;;11.90;99.90;;;;;;5033687;28;20476;-80
2022/11/30 00:11:17;;;;;;;5.82;3.10;;;11.80;99.90;;;;;;5052141;28;20029;-80
2022/11/30 00:13:44;;;;;;;6.00;3.30;;;11.80;99.90;;;;;;5052029;28;20033;-80
2022/11/30 00:16:12;;;;;;;5.72;3.10;;;11.80;99.90;;;;;;5052086;28;20385;-80
2022/11/30 00:18:38;;;;;;;5.40;3.10;;;11.70;99.90;;;;;;5034001;28;20389;-80
2022/11/30 00:21:09;;;;;;;5.82;3.22;;;11.80;99.90;;;;;;5052462;28;20029;-79
2022/11/30 00:23:38;;;;;;;5.57;3.78;;;11.70;99.90;;;;;;5052109;28;20472;-79
2022/11/30 00:26:08;;;;;;;4.70;3.30;;;11.70;99.90;;;;;;5051694;28;20053;-79
2022/11/30 00:28:36;;;;;;;5.05;3.42;;;11.70;99.90;;;;;;5052101;28;20115;-79
2022/11/30 00:31:05;;;;;;;5.32;3.33;;;11.80;99.90;;;;;;5034229;28;20408;-79
2022/11/30 00:33:33;;;;;;;5.75;3.35;;;11.80;99.90;;;;;;5051065;28;20106;-79
2022/11/30 00:36:02;;;;;;;5.18;3.40;;;11.90;99.90;;;;;;5051671;28;20086;-78
2022/11/30 00:38:30;;;;;;;4.53;3.28;;;11.90;99.90;;;;;;5033605;28;20057;-80
2022/11/30 00:40:57;;;;;;;6.10;3.40;;;12.00;99.90;;;;;;5051325;28;20036;-80
2022/11/30 00:43:26;;;;;;;7.28;3.40;;;12.00;99.90;;;;;;5050971;28;20029;-74
2022/11/30 00:45:52;;;;;;;5.82;3.50;;;12.10;99.90;;;;;;5013923;28;20044;-81
2022/11/30 00:48:18;;;;;;;5.72;3.40;;;12.10;99.90;;;;;;5050635;28;20380;-80
2022/11/30 00:50:45;;;;;;;4.85;3.28;;;12.10;99.90;;;;;;5050194;28;20445;-78
2022/11/30 00:53:15;;;;;;;6.88;3.53;;;12.10;99.90;;;;;;5033388;28;20028;-79
2022/11/30 00:55:43;;;;;;;5.28;3.28;;;12.20;99.90;;;;;;5051540;28;20112;-80
2022/11/30 00:58:09;;;;;;;5.40;3.28;;;12.20;99.90;;;;;;5051284;28;20021;-79
2022/11/30 01:00:36;;;;;;;5.78;3.42;;;12.20;99.90;;;;;;5051636;28;20416;-79
2022/11/30 01:03:02;;;;;;;5.07;3.10;;;12.30;99.90;;;;;;5035269;28;20033;-79
2022/11/30 01:05:29;;;;;;;4.25;3.10;;;12.20;99.90;;;;;;5054671;28;20379;-78
2022/11/30 01:07:58;;;;;;;5.80;2.97;;;12.20;99.90;;;;;;5054935;28;20469;-79
2022/11/30 01:10:24;;;;;;;5.13;3.17;;;12.20;99.90;;;;;;5054713;28;20471;-80
2022/11/30 01:12:50;;;;;;;4.60;3.00;;;12.10;99.90;;;;;;5054730;28;20049;-80
2022/11/30 01:15:16;;;;;;;4.95;3.20;;;12.10;99.90;;;;;;5036802;28;20325;-80
2022/11/30 01:17:43;;;;;;;5.20;3.03;;;12.00;99.90;;;;;;5054608;28;20443;-80
2022/11/30 01:20:18;;;;;;;5.50;3.00;;;12.00;99.90;;;;;;5054656;28;20033;-80
2022/11/30 01:22:44;;;;;;;6.90;3.13;;;12.00;99.90;;;;;;5054495;28;20342;-80
2022/11/30 01:25:10;;;;;;;5.27;3.27;;;11.90;99.90;;;;;;5054790;28;20489;-80
2022/11/30 01:27:37;;;;;;;9.30;3.53;;;11.90;99.90;;;;;;5054985;28;20036;-80
2022/11/30 01:30:05;;;;;;;4.65;3.10;;;11.90;99.90;;;;;;5055006;28;20040;-80
2022/11/30 01:32:31;;;;;;;4.45;3.00;;;11.80;99.90;;;;;;5054950;28;20418;-80
2022/11/30 01:34:58;;;;;;;6.20;3.40;;;11.80;99.90;;;;;;5055265;28;20461;-80
2022/11/30 01:37:24;;;;;;;;;;;11.80;99.90;;;;;;5055318;28;20029;-80
2022/11/30 01:39:50;;;;;;;5.15;3.60;;;11.80;99.90;;;;;;5054598;28;19905;-80
2022/11/30 01:42:18;;;;;;;5.50;3.37;;;11.70;99.90;;;;;;5054671;28;20064;-80
2022/11/30 01:44:53;;;;;;;6.53;3.55;;;11.60;99.90;;;;;;5054095;28;20082;-80
2022/11/30 01:47:26;;;;;;;5.45;3.30;;;11.50;99.90;;;;;;5036275;28;20135;-81
2022/11/30 01:50:00;;;;;;;4.82;3.42;;;11.50;99.90;;;;;;5054783;28;20068;-81
2022/11/30 01:52:43;;;;;;;4.88;3.40;;;11.50;99.90;;;;;;5053691;28;20028;-80
2022/11/30 01:55:26;;;;;;;6.15;3.47;;;11.40;99.90;;;;;;5054279;28;20025;-80
2022/11/30 01:58:10;;;;;;;4.50;3.22;;;11.40;99.90;;;;;;5053986;28;20389;-80
2022/11/30 02:00:37;;;;;;;6.75;3.63;;;11.40;99.90;;;;;;5054520;28;20438;-80
2022/11/30 02:03:45;;;;;;;6.28;3.40;;;11.30;99.90;;;;;;5054028;28;20047;-81
2022/11/30 02:06:11;;;;;;;5.80;3.67;;;11.40;99.90;;;;;;5032559;28;20120;-80
2022/11/30 02:08:39;;;;;;;4.63;3.35;;;11.50;99.90;;;;;;5053856;28;20110;-80
2022/11/30 02:11:11;;;;;;;5.38;3.58;;;11.50;99.90;;;;;;5054233;28;20086;-79
2022/11/30 02:13:52;;;;;;;4.72;3.58;;;11.60;99.90;;;;;;5054057;28;20487;-81
2022/11/30 02:16:24;;;;;;;4.57;3.30;;;11.70;99.90;;;;;;5053864;28;20083;-81
2022/11/30 02:19:15;;;;;;;4.55;3.20;;;11.80;99.90;;;;;;5053898;28;20021;-80
2022/11/30 02:22:34;;;;;;;4.32;2.97;;;11.90;99.90;;;;;;5054019;28;20089;-80
2022/11/30 02:25:25;;;;;;;6.25;3.70;;;12.00;99.90;;;;;;4972327;28;20631;-79
2022/11/30 02:28:17;;;;;;;4.97;3.20;;;12.00;99.90;;;;;;4972788;28;20428;-79
2022/11/30 02:30:49;;;;;;;5.85;3.40;;;12.10;99.90;;;;;;4956354;28;20058;-79
2022/11/30 02:33:19;;;;;;;5.57;3.30;;;12.10;99.90;;;;;;4972888;28;20027;-79
2022/11/30 02:35:49;;;;;;;4.50;3.35;;;12.10;99.90;;;;;;4972703;28;20039;-79
2022/11/30 02:38:20;;;;;;;6.00;3.35;;;12.20;99.90;;;;;;4972693;28;20031;-80
2022/11/30 02:40:47;;;;;;;4.97;3.20;;;12.10;99.90;;;;;;4972586;28;20035;-79
2022/11/30 02:43:13;;;;;;;5.13;3.25;;;12.20;99.90;;;;;;4972371;28;20455;-80
2022/11/30 02:46:01;;;;;;;5.55;3.50;;;12.20;99.90;;;;;;4956059;28;20108;-80
2022/11/30 02:48:54;;;;;;;4.57;3.45;;;12.10;99.90;;;;;;4972339;28;20083;-81
2022/11/30 02:51:23;;;;;;;6.65;3.60;;;11.90;99.90;;;;;;4956135;28;20041;-80
2022/11/30 02:53:51;;;;;;;5.55;3.28;;;11.90;99.90;;;;;;4955902;28;20035;-80
2022/11/30 02:56:19;;;;;;;5.72;3.30;;;11.80;99.90;;;;;;5033480;28;20029;-81
2022/11/30 02:58:45;;;;;;;4.63;3.47;;;11.80;99.90;;;;;;5035430;28;20048;-76
2022/11/30 03:01:11;;;;;;;4.22;3.33;;;11.80;99.90;;;;;;5052961;28;20021;-80
2022/11/30 03:03:37;;;;;;;6.22;3.60;;;11.70;99.90;;;;;;5052953;28;20116;-80
2022/11/30 03:06:03;;;;;;;6.95;3.80;;;11.70;99.90;;;;;;5052815;28;20120;-80
2022/11/30 03:08:32;;;;;;;4.72;3.33;;;11.70;99.90;;;;;;5052364;28;20060;-80
2022/11/30 03:11:03;;;;;;;5.30;3.50;;;11.80;99.90;;;;;;5034104;28;20166;-80
2022/11/30 03:13:30;;;;;;;4.90;3.60;;;11.80;99.90;;;;;;5034149;28;20528;-80
2022/11/30 03:15:56;;;;;;;4.32;3.42;;;11.80;99.90;;;;;;5033854;28;20033;-80
2022/11/30 03:18:22;;;;;;;4.83;3.40;;;11.80;99.90;;;;;;5052599;28;20021;-80
2022/11/30 03:20:48;;;;;;;6.47;3.60;;;11.80;99.90;;;;;;5052603;28;20108;-80
2022/11/30 03:23:14;;;;;;;5.40;3.70;;;11.80;99.90;;;;;;5052478;28;20326;-80
2022/11/30 03:25:40;;;;;;;4.73;3.30;;;11.90;99.90;;;;;;5051763;28;20104;-80
2022/11/30 03:28:06;;;;;;;4.90;3.70;;;11.90;99.90;;;;;;5052120;28;20062;-81
2022/11/30 03:30:33;;;;;;;4.40;3.23;;;11.90;99.90;;;;;;5052471;28;20036;-80
2022/11/30 03:33:00;;;;;;;6.60;3.60;;;12.00;99.90;;;;;;5033411;28;20041;-80
2022/11/30 03:35:27;;;;;;;7.32;3.30;;;12.00;99.90;;;;;;5051918;28;20021;-80
2022/11/30 03:37:53;;;;;;;5.20;3.60;;;12.00;99.90;;;;;;5052061;28;20125;-80
2022/11/30 03:40:20;;;;;;;5.20;3.73;;;12.00;99.90;;;;;;5051826;28;20029;-81
2022/11/30 03:42:46;;;;;;;5.17;3.37;;;12.00;99.90;;;;;;5051935;28;20119;-80
2022/11/30 03:45:12;;;;;;;5.13;3.70;;;12.00;99.90;;;;;;5055776;28;20052;-80
2022/11/30 03:47:50;;;;;;;5.23;3.40;;;11.90;99.90;;;;;;5054123;28;20053;-80
2022/11/30 03:50:17;;;;;;;6.60;4.00;;;11.70;99.90;;;;;;5052394;28;20079;-77
2022/11/30 03:52:42;;;;;;;;;;;11.40;99.90;;;;;;5055552;28;20025;-78
2022/11/30 03:55:09;;;;;;;5.47;3.30;;;11.40;99.90;;;;;;5054991;28;19911;-78
2022/11/30 03:57:39;;;;;;;5.35;3.40;;;11.50;99.90;;;;;;5052183;28;20029;-78
2022/11/30 04:00:06;;;;;;;4.88;3.25;;;11.60;99.90;;;;;;5051945;28;20517;-78
2022/11/30 04:02:32;;;;;;;5.53;2.97;;;11.60;99.90;;;;;;5052216;28;20025;-79
2022/11/30 04:04:59;;;;;;;5.75;2.90;;;11.70;99.90;;;;;;5052034;28;20040;-79
2022/11/30 04:07:25;;;;;;;6.83;3.20;;;11.70;99.90;;;;;;5052268;28;20041;-78
2022/11/30 04:09:51;;;;;;;5.63;3.70;;;11.70;99.90;;;;;;5034155;28;20098;-79
2022/11/30 04:12:17;;;;;;;4.23;3.17;;;11.70;99.90;;;;;;5052518;28;20252;-80
2022/11/30 04:14:44;;;;;;;6.10;3.40;;;11.70;99.90;;;;;;5033931;28;20084;-80
2022/11/30 04:17:11;;;;;;;5.75;3.10;;;11.80;99.90;;;;;;5051860;28;20021;-80
2022/11/30 04:19:37;;;;;;;4.80;2.63;;;11.80;99.90;;;;;;5034005;28;20044;-79
2022/11/30 04:22:03;;;;;;;4.40;2.50;;;11.70;99.90;;;;;;5052221;28;20025;-80
2022/11/30 04:24:29;;;;;;;6.87;4.17;;;11.70;99.90;;;;;;5052795;28;20327;-80
2022/11/30 04:26:55;;;;;;;5.70;4.40;;;11.70;99.90;;;;;;5052762;28;20275;-80
2022/11/30 04:29:21;;;;;;;6.25;3.95;;;11.50;99.90;;;;;;5052802;28;20029;-80
2022/11/30 04:31:49;;;;;;;6.53;4.70;;;11.50;99.90;;;;;;5053015;28;20024;-79
2022/11/30 04:34:16;;;;;;;7.18;4.45;;;11.30;99.90;;;;;;5052433;28;20286;-80
2022/11/30 04:36:42;;;;;;;7.60;4.40;;;11.20;99.90;;;;;;5050875;28;20057;-80
2022/11/30 04:39:12;;;;;;;7.23;4.33;;;11.10;99.90;;;;;;5052644;28;20059;-80
2022/11/30 04:41:40;;;;;;;7.40;5.10;;;11.00;99.90;;;;;;5034795;28;20268;-80
2022/11/30 04:44:06;;;;;;;7.82;5.20;;;10.90;99.90;;;;;;5052358;28;20041;-80
2022/11/30 04:46:33;;;;;;;8.52;5.20;;;10.90;99.90;;;;;;5034278;28;20052;-80
2022/11/30 04:49:00;;;;;;;7.00;4.87;;;10.80;99.90;;;;;;5052053;28;20025;-80
2022/11/30 04:51:27;;;;;;;6.53;5.00;;;10.70;99.90;;;;;;5052346;28;20585;-80
2022/11/30 04:53:53;;;;;;;;;;;10.70;99.90;;;;;;5034484;28;20136;-81
2022/11/30 04:56:33;;;;;;;8.02;4.53;;;10.70;99.90;;;;;;5052270;28;20380;-80
2022/11/30 04:59:00;;;;;;;8.80;4.68;;;10.80;99.90;;;;;;5017827;28;20500;-80
2022/11/30 05:01:28;;;;;;;6.88;4.28;;;10.80;99.90;;;;;;5051969;28;20021;-80
2022/11/30 05:03:54;;;;;;;6.80;4.10;;;10.80;99.90;;;;;;5051875;28;20033;-80
2022/11/30 05:06:20;;;;;;;8.00;4.37;;;10.80;99.90;;;;;;5051732;28;20090;-80
2022/11/30 05:08:46;;;;;;;5.72;3.80;;;10.80;99.90;;;;;;5051520;28;20049;-79
2022/11/30 05:11:13;;;;;;;6.60;4.10;;;10.80;99.90;;;;;;5051584;28;20104;-80
2022/11/30 05:13:43;;;;;;;6.10;4.13;;;10.80;99.90;;;;;;5051441;28;20032;-79
2022/11/30 05:16:11;;;;;;;5.95;4.38;;;10.80;99.90;;;;;;5033617;28;20036;-79
2022/11/30 05:18:39;;;;;;;6.78;4.20;;;10.90;99.90;;;;;;5033921;28;20029;-80
2022/11/30 05:21:06;;;;;;;5.90;3.75;;;10.90;99.90;;;;;;5052606;28;20029;-78
2022/11/30 05:23:32;;;;;;;5.78;4.20;;;10.90;99.90;;;;;;5052373;28;20025;-80
2022/11/30 05:26:02;;;;;;;6.07;4.40;;;10.90;99.90;;;;;;5052437;28;20036;-80
2022/11/30 05:28:28;;;;;;;10.13;4.18;;;10.90;99.90;;;;;;5053058;28;20025;-79
2022/11/30 05:30:54;;;;;;;5.67;3.73;;;10.90;99.90;;;;;;5052746;28;20056;-80
2022/11/30 05:33:20;;;;;;;5.40;3.47;;;11.00;99.90;;;;;;5052715;28;20021;-79
2022/11/30 05:35:47;;;;;;;4.55;3.35;;;11.00;99.90;;;;;;5052643;28;20013;-79
2022/11/30 05:38:13;;;;;;;5.07;4.07;;;11.00;99.90;;;;;;5034127;28;20024;-79
2022/11/30 05:40:39;;;;;;;5.30;3.80;;;11.00;99.90;;;;;;5052179;28;20063;-78
2022/11/30 05:43:06;;;;;;;5.50;3.70;;;10.90;99.90;;;;;;5052079;28;20040;-78
2022/11/30 05:45:32;;;;;;;5.88;4.18;;;10.90;99.90;;;;;;5052177;28;20453;-79
2022/11/30 05:47:59;;;;;;;6.25;3.78;;;10.90;99.90;;;;;;5053100;28;20033;-79
2022/11/30 05:50:25;;;;;;;5.90;3.67;;;10.90;99.90;;;;;;5056275;28;20029;-79
2022/11/30 05:52:55;;;;;;;6.03;4.40;;;10.90;99.90;;;;;;5055306;28;20307;-78
2022/11/30 05:55:22;;;;;;;6.43;4.00;;;10.90;99.90;;;;;;5055266;28;20052;-79
2022/11/30 05:57:48;;;;;;;10.68;4.00;;;10.90;99.90;;;;;;5055435;28;20442;-78
2022/11/30 06:00:14;;;;;;;8.27;4.40;;;10.90;99.90;;;;;;5055184;28;20025;-75
2022/11/30 06:02:40;;;;;;;6.38;4.05;;;10.90;99.90;;;;;;5055633;28;20053;-73
2022/11/30 06:05:13;;;;;;;7.22;4.07;;;10.90;99.90;;;;;;5062075;28;20032;-79
2022/11/30 06:07:40;;;;;;;5.30;3.83;;;10.90;99.90;;;;;;5063432;28;20059;-78
2022/11/30 06:10:28;;;;;;;6.10;4.00;;;10.90;99.90;;;;;;5042863;28;20044;-74
2022/11/30 06:12:56;;;;;;;8.50;3.97;;;10.90;99.90;;;;;;5046421;28;20123;-79
2022/11/30 06:15:23;;;;;;;9.07;4.47;;;11.00;99.90;;;;;;5075449;28;20024;-80
2022/11/30 06:17:50;;;;;;;5.75;3.88;;;11.00;99.90;;;;;;5075560;28;20031;-79
2022/11/30 06:20:16;;;;;;;;;;;11.00;99.90;;;;;;5075344;28;20056;-78
2022/11/30 06:22:45;;;;;;;6.43;4.40;;;11.00;99.90;;;;;;5074040;28;20356;-78
2022/11/30 06:25:11;;;;;;;8.93;4.10;;;11.10;99.90;;;;;;5056191;28;20025;-78
2022/11/30 06:27:37;;;;;;;5.55;2.90;;;11.10;99.90;;;;;;5056653;28;20032;-78
2022/11/30 06:30:04;;;;;;;6.87;2.90;;;11.20;99.90;;;;;;5074263;28;20480;-79
2022/11/30 06:32:30;;;;;;;4.20;2.28;;;11.20;99.90;;;;;;5057556;28;20392;-78
2022/11/30 06:34:57;;;;;;;6.15;2.50;;;11.30;99.90;;;;;;5074529;28;20516;-79
2022/11/30 06:37:25;;;;;;;6.03;2.95;;;11.40;99.90;;;;;;5074754;28;20097;-80
2022/11/30 06:39:54;;;;;;;4.85;2.70;;;11.40;99.90;;;;;;5073014;28;20461;-77
2022/11/30 06:42:20;;;;;;;4.47;2.50;;;11.50;99.90;;;;;;5059591;28;20024;-79
2022/11/30 06:44:47;;;;;;;4.63;2.42;;;11.60;99.90;;;;;;5062200;28;20462;-79
2022/11/30 06:47:23;;;;;;;4.05;1.90;;;11.80;99.90;;;;;;5062196;28;20083;-79
2022/11/30 06:49:49;;;;;;;3.38;1.90;;;12.00;99.90;;;;;;5054208;28;20033;-78
2022/11/30 06:52:15;;;;;;;3.00;1.80;;;12.10;99.90;;;;;;5053384;28;20107;-78
2022/11/30 06:54:41;;;;;;;5.33;2.13;;;12.30;99.90;;;;;;5053464;28;20331;-79
2022/11/30 06:57:09;;;;;;;5.07;1.80;;;12.40;99.90;;;;;;5053831;28;20287;-79
2022/11/30 06:59:41;;;;;;;4.25;1.70;;;12.50;99.90;;;;;;5052025;28;20077;-79
2022/11/30 07:02:14;;;;;;;6.60;2.00;;;12.50;99.90;;;;;;5052793;28;20059;-78
2022/11/30 07:04:43;;;;;;;3.53;1.63;;;12.60;99.90;;;;;;5053179;28;20116;-79
2022/11/30 07:07:10;;;;;;;4.90;1.80;;;12.70;99.90;;;;;;5035437;28;20083;-80
2022/11/30 07:09:38;;;;;;;;;;;12.80;99.90;;;;;;5053185;28;20053;-70
2022/11/30 07:12:07;;;;;;;;;;;12.90;99.90;;;;;;5074437;28;19909;-83
2022/11/30 07:14:34;;;;;;;6.00;3.45;;;13.20;99.90;;;;;;5072984;28;20431;-82
2022/11/30 07:17:03;;;;;;;11.07;3.70;;;13.60;99.90;;;;;;5063527;28;20025;-83
2022/11/30 07:19:30;;;;;;;5.45;3.10;;;13.70;99.90;;;;;;5053544;28;20120;-85
2022/11/30 07:21:56;;;;;;;4.30;3.30;;;14.10;99.90;;;;;;5053038;28;20040;-83
2022/11/30 07:27:07;;;;;;;3.72;2.67;;;15.00;99.90;;;;;;5054187;28;20040;-83
2022/11/30 07:29:33;;;;;;;3.95;2.10;;;16.00;99.90;;;;;;5035663;28;20041;-84
2022/11/30 07:31:59;;;;;;;7.93;2.00;;;16.90;99.90;;;;;;5052832;28;20021;-83
2022/11/30 07:34:26;;;;;;;2.38;1.20;;;17.50;99.90;;;;;;5052540;28;20051;-82
2022/11/30 07:36:52;;;;;;;4.80;1.50;;;17.40;99.90;;;;;;5052208;28;20025;-82
2022/11/30 07:39:18;;;;;;;2.88;1.23;;;17.10;99.90;;;;;;5052742;28;20032;-83
2022/11/30 07:41:50;;;;;;;4.90;1.50;;;16.80;99.90;;;;;;5051940;28;20454;-84
2022/11/30 07:44:17;;;;;;;3.78;1.10;;;16.60;99.90;;;;;;5051914;28;20040;-82
2022/11/30 07:46:43;;;;;;;3.40;1.00;;;16.30;99.90;;;;;;5052681;28;20017;-83
2022/11/30 07:49:15;;;;;;;4.78;0.90;;;16.40;99.90;;;;;;5064504;28;20020;-83
2022/11/30 07:51:41;;;;;;;3.63;1.20;;;16.50;99.90;;;;;;5037619;28;20052;-83
2022/11/30 07:54:08;;;;;;;6.00;1.40;;;16.60;99.90;;;;;;5014036;28;20025;-83
2022/11/30 07:56:34;;;;;;;3.58;1.15;;;16.60;99.90;;;;;;5032255;28;20025;-83
2022/11/30 07:59:01;;;;;;;4.00;1.40;;;16.30;99.90;;;;;;5032347;28;20053;-83
2022/11/30 08:01:28;;;;;;;;;;;16.30;99.90;;;;;;5037974;28;20040;-83
2022/11/30 08:03:55;;;;;;;4.25;1.80;;;16.20;99.90;;;;;;5051836;28;19913;-83
2022/11/30 08:06:24;;;;;;;4.45;2.20;;;15.90;99.90;;;;;;5052086;28;20105;-82
2022/11/30 08:08:52;;;;;;;4.38;2.22;;;15.60;99.90;;;;;;5051401;28;20084;-82
2022/11/30 08:11:21;;;;;;;4.47;2.78;;;15.40;99.90;;;;;;5033867;28;20025;-82
2022/11/30 08:13:47;;;;;;;3.40;1.92;;;15.40;99.90;;;;;;5051983;28;20044;-79
2022/11/30 08:16:19;;;;;;;3.10;1.70;;;15.20;99.90;;;;;;5052117;28;20075;-83
2022/11/30 08:18:46;;;;;;;4.80;2.10;;;15.10;99.90;;;;;;5052303;28;20029;-83
2022/11/30 08:21:15;;;;;;;6.20;2.92;;;14.90;99.90;;;;;;5033872;28;20029;-83
2022/11/30 08:23:44;;;;;;;4.95;3.00;;;15.10;99.90;;;;;;5051681;28;20488;-83
2022/11/30 08:26:15;;;;;;;6.15;3.30;;;15.10;99.90;;;;;;5051735;28;20036;-82
2022/11/30 08:28:44;;;;;;;7.47;3.45;;;14.90;99.90;;;;;;5030217;28;20111;-82
2022/11/30 08:31:16;;;;;;;6.85;2.97;;;14.90;99.90;;;;;;5032000;28;20030;-81
2022/11/30 08:33:44;;;;;;;3.75;2.63;;;15.00;99.90;;;;;;5031840;28;20033;-82
2022/11/30 08:36:19;;;;;;;4.70;3.15;;;14.70;99.90;;;;;;4997949;28;20095;-82
2022/11/30 08:38:47;;;;;;;5.35;3.70;;;14.50;99.90;;;;;;5031964;28;20032;-83
2022/11/30 08:41:18;;;;;;;6.05;3.90;;;14.40;99.90;;;;;;5035646;28;20017;-83
2022/11/30 08:43:46;;;;;;;8.52;4.07;;;14.40;99.90;;;;;;5051670;28;20039;-82
2022/11/30 08:46:14;;;;;;;7.85;3.30;;;14.20;99.90;;;;;;5052015;28;20025;-82
2022/11/30 08:48:42;;;;;;;6.55;3.20;;;14.00;99.90;;;;;;5051661;28;20090;-80
2022/11/30 08:51:14;;;;;;;5.63;3.53;;;13.90;99.90;;;;;;5051174;28;20480;-81
2022/11/30 08:53:40;;;;;;;7.00;3.08;;;13.80;99.90;;;;;;5050943;28;20075;-81
2022/11/30 08:56:10;;;;;;;12.60;4.32;;;13.90;99.90;;;;;;5051094;28;20178;-81
2022/11/30 08:58:38;;;;;;;5.55;3.47;;;14.00;99.90;;;;;;5051310;28;20418;-81
2022/11/30 09:01:17;;;;;;;6.13;3.25;;;14.10;99.90;;;;;;5033074;28;20025;-82
2022/11/30 09:03:44;;;;;;;5.90;3.45;;;14.20;99.90;;;;;;5051965;28;20032;-81
2022/11/30 09:06:13;;;;;;;5.03;2.00;;;14.40;99.90;;;;;;5051485;28;20500;-81
2022/11/30 09:08:42;;;;;;;4.90;2.30;;;14.50;99.90;;;;;;5051259;28;20091;-81
2022/11/30 09:11:18;;;;;;;9.75;2.90;;;14.40;99.90;;;;;;5034548;28;20044;-81
2022/11/30 09:13:46;;;;;;;5.70;3.22;;;14.40;99.90;;;;;;5017697;28;20033;-81
2022/11/30 09:16:13;;;;;;;4.90;2.55;;;14.50;99.90;;;;;;5049709;28;20430;-81
2022/11/30 09:18:40;;;;;;;5.60;2.95;;;14.60;99.90;;;;;;5050671;28;20115;-81
2022/11/30 09:21:08;;;;;;;;;;;14.70;99.90;;;;;;5016942;28;20033;-81
2022/11/30 09:23:50;;;;;;;5.30;2.80;;;14.60;99.90;;;;;;5034595;28;20074;-81
2022/11/30 09:26:24;;;;;;;7.95;3.08;;;14.70;99.90;;;;;;5037579;28;20365;-80
2022/11/30 09:28:51;;;;;;;5.65;2.60;;;14.80;99.90;;;;;;5055598;28;20040;-81
2022/11/30 09:31:20;;;;;;;5.97;3.10;;;14.80;99.90;;;;;;5037035;28;20021;-81
2022/11/30 09:33:46;;;;;;;8.63;3.17;;;14.90;99.90;;;;;;5055155;28;20029;-79
2022/11/30 09:36:20;;;;;;;6.63;2.70;;;14.90;99.90;;;;;;5055371;28;20426;-80
2022/11/30 09:38:47;;;;;;;9.00;4.07;;;15.10;99.90;;;;;;5055007;28;20428;-81
2022/11/30 09:41:43;;;;;;;5.47;2.53;;;15.20;99.90;;;;;;5055029;28;20091;-81
2022/11/30 09:44:17;;;;;;;;;;;15.20;99.90;;;;;;5055521;28;20037;-81
2022/11/30 09:47:09;;;;;;;3.00;1.30;;;15.30;99.90;;;;;;5054280;28;19998;-81
2022/11/30 09:49:41;;;;;;;4.57;1.55;;;15.30;99.90;;;;;;5054295;28;20033;-80
2022/11/30 09:52:25;;;;;;;6.20;2.10;;;15.40;99.90;;;;;;5036076;28;20037;-80
2022/11/30 09:54:51;;;;;;;5.90;0.90;;;15.50;99.90;;;;;;5054623;28;20233;-81
2022/11/30 09:57:33;;;;;;;3.70;1.20;;;15.60;99.90;;;;;;5054500;28;20032;-80
2022/11/30 10:00:05;;;;;;;3.75;1.02;;;15.50;99.90;;;;;;5054200;28;20056;-80
2022/11/30 10:02:37;;;;;;;5.15;1.58;;;15.50;99.90;;;;;;5054053;28;20429;-79
2022/11/30 10:05:12;;;;;;;4.50;1.52;;;15.30;99.90;;;;;;5052818;28;20057;-80
2022/11/30 10:07:56;;;;;;;4.82;1.50;;;15.50;99.90;;;;;;5035477;28;20123;-79
2022/11/30 10:10:32;;;;;;;7.20;1.85;;;15.50;99.90;;;;;;5049154;28;20067;-78
2022/11/30 10:13:38;;;;;;;6.03;1.50;;;15.80;99.90;;;;;;5053506;28;20037;-81
2022/11/30 10:16:31;;;;;;;3.05;1.58;;;16.20;99.90;;;;;;5053607;28;20090;-79
2022/11/30 10:19:17;;;;;;;5.63;1.80;;;16.60;99.90;;;;;;5037121;28;20022;-79
2022/11/30 10:22:12;;;;;;;4.13;1.30;;;16.80;99.90;;;;;;5055880;28;20049;-80
2022/11/30 10:24:53;;;;;;;4.63;1.40;;;16.50;99.90;;;;;;5054276;28;20112;-79
2022/11/30 10:28:01;;;;;;;4.10;1.17;;;16.70;99.90;;;;;;5054067;28;20029;-80
2022/11/30 10:30:35;;;;;;;7.15;1.05;;;16.50;99.90;;;;;;5053671;28;20074;-80
2022/11/30 10:33:26;;;;;;;4.03;1.30;;;16.60;99.90;;;;;;5054356;28;20025;-80
2022/11/30 10:36:05;;;;;;;3.20;1.00;;;16.60;99.90;;;;;;5054096;28;20084;-81
2022/11/30 10:38:42;;;;;;;4.38;1.30;;;16.40;99.90;;;;;;5037741;28;20186;-79
2022/11/30 10:41:25;;;;;;;6.35;1.23;;;16.50;99.90;;;;;;5038746;28;20040;-80
2022/11/30 10:44:01;;;;;;;3.65;1.20;;;16.30;99.90;;;;;;5053740;28;20090;-80
2022/11/30 10:47:21;;;;;;;4.10;1.42;;;16.30;99.90;;;;;;5053501;28;20025;-80
2022/11/30 10:49:51;;;;;;;4.20;1.20;;;16.40;99.90;;;;;;4992072;28;20113;-79
2022/11/30 10:52:23;;;;;;;3.22;1.20;;;16.20;99.90;;;;;;4991977;28;20163;-79
2022/11/30 10:54:53;;;;;;;4.70;1.85;;;16.30;99.90;;;;;;4991593;28;20026;-80
2022/11/30 10:57:21;;;;;;;4.68;1.35;;;16.40;99.90;;;;;;4991992;28;20084;-80
2022/11/30 10:59:53;;;;;;;6.03;1.20;;;16.30;99.90;;;;;;4991795;28;20046;-80
2022/11/30 11:02:41;;;;;;;8.10;1.75;;;16.60;99.90;;;;;;4992452;28;20074;-80
2022/11/30 11:05:18;;;;;;;7.50;1.77;;;16.80;99.90;;;;;;4991824;28;20042;-80
2022/11/30 11:07:48;;;;;;;7.50;1.27;;;17.00;99.90;;;;;;4991874;28;20058;-80
2022/11/30 11:10:22;;;;;;;4.40;1.40;;;16.60;99.90;;;;;;4991327;28;20161;-80
2022/11/30 11:12:54;;;;;;;6.70;1.80;;;16.70;99.90;;;;;;4992027;28;20173;-82
2022/11/30 11:15:29;;;;;;;4.50;1.67;;;16.90;99.90;;;;;;4991293;28;20026;-80
2022/11/30 11:18:47;;;;;;;6.07;1.60;;;16.90;99.90;;;;;;4991192;28;20023;-82
2022/11/30 11:21:18;;;;;;;5.55;1.23;;;17.00;99.90;;;;;;4991210;28;20149;-82
2022/11/30 11:23:46;;;;;;;6.45;1.20;;;17.30;99.90;;;;;;4990982;28;20499;-81
2022/11/30 11:26:17;;;;;;;5.97;1.13;;;17.30;99.90;;;;;;5026621;28;20038;-81
2022/11/30 11:28:48;;;;;;;4.03;1.15;;;17.30;99.90;;;;;;5016925;28;20532;-81
2022/11/30 11:31:18;;;;;;;4.43;1.10;;;17.20;99.90;;;;;;5014391;28;20074;-81
2022/11/30 11:33:52;;;;;;;6.22;1.10;;;17.20;99.90;;;;;;5018927;28;20032;-81
2022/11/30 11:36:30;;;;;;;3.83;1.27;;;17.20;99.90;;;;;;5033619;28;20466;-80
2022/11/30 11:38:57;;;;;;;3.60;1.38;;;17.20;99.90;;;;;;5052875;28;20032;-80
2022/11/30 11:41:25;;;;;;;;;;;17.30;99.90;;;;;;5053602;28;20116;-80
2022/11/30 11:44:09;;;;;;;3.72;1.42;;;17.10;99.90;;;;;;5034059;28;19913;-81
2022/11/30 11:46:54;;;;;;;8.27;1.45;;;16.80;99.90;;;;;;5051789;28;20117;-81
2022/11/30 11:49:27;;;;;;;2.72;0.95;;;16.30;99.90;;;;;;5033528;28;20481;-80
2022/11/30 11:52:11;;;;;;;4.10;1.40;;;16.00;99.90;;;;;;5033717;28;20098;-81
2022/11/30 11:54:59;;;;;;;7.07;1.40;;;16.30;99.90;;;;;;5027751;28;20123;-76
2022/11/30 11:57:53;;;;;;;4.78;1.05;;;16.50;99.90;;;;;;5051866;28;20029;-75
2022/11/30 12:00:24;;;;;;;7.35;1.05;;;16.20;99.90;;;;;;5052321;28;20053;-76
2022/11/30 12:03:08;;;;;;;4.70;1.15;;;16.20;99.90;;;;;;5051072;28;20352;-76
2022/11/30 12:05:37;;;;;;;9.52;1.83;;;16.40;99.90;;;;;;5050092;28;20119;-75
2022/11/30 12:08:29;;;;;;;6.63;1.40;;;16.50;99.90;;;;;;5050116;28;20377;-76
2022/11/30 12:11:11;;;;;;;5.22;1.63;;;16.90;99.90;;;;;;5032804;28;20084;-77
2022/11/30 12:13:40;;;;;;;8.25;2.35;;;17.00;99.90;;;;;;5050773;28;20028;-75
2022/11/30 12:16:18;;;;;;;6.55;1.42;;;17.10;99.90;;;;;;5050583;28;20025;-75
2022/11/30 12:18:57;;;;;;;7.55;1.60;;;16.80;99.90;;;;;;5051122;28;20025;-80
2022/11/30 12:21:42;;;;;;;10.88;1.67;;;17.00;99.90;;;;;;5051630;28;20021;-81
2022/11/30 12:24:39;;;;;;;4.05;0.93;;;17.20;99.90;;;;;;5034142;28;20112;-80
2022/11/30 12:27:21;;;;;;;8.27;1.00;;;17.50;99.90;;;;;;5051648;28;20049;-80
2022/11/30 12:30:01;;;;;;;8.05;1.05;;;17.80;99.90;;;;;;5052297;28;20025;-81
2022/11/30 12:32:45;;;;;;;6.55;1.40;;;18.00;99.90;;;;;;5034009;28;20131;-81
2022/11/30 12:35:30;;;;;;;3.83;0.80;;;18.10;99.90;;;;;;5051134;28;20029;-82
2022/11/30 12:38:05;;;;;;;8.25;1.35;;;18.20;99.90;;;;;;5035572;28;20032;-82
2022/11/30 12:40:37;;;;;;;8.23;1.17;;;18.30;99.90;;;;;;5051988;28;20032;-81
2022/11/30 12:43:36;;;;;;;3.35;0.73;;;18.30;99.90;;;;;;5017844;28;20033;-81
2022/11/30 12:46:22;;;;;;;7.82;0.85;;;18.00;99.90;;;;;;5052076;28;20025;-81
2022/11/30 12:49:16;;;;;;;4.45;0.70;;;17.70;99.90;;;;;;5052271;28;20017;-81
2022/11/30 12:52:13;;;;;;;2.67;0.70;;;17.40;99.90;;;;;;5051744;28;20021;-82
2022/11/30 12:54:51;;;;;;;5.97;1.25;;;17.30;99.90;;;;;;5051803;28;20096;-81
2022/11/30 12:57:26;;;;;;;3.20;0.70;;;17.60;99.90;;;;;;5033920;28;20136;-82
2022/11/30 13:00:05;;;;;;;7.47;1.13;;;17.80;99.90;;;;;;5051862;28;20318;-82
2022/11/30 13:02:43;;;;;;;7.25;0.88;;;18.10;99.90;;;;;;5051539;28;20078;-82
2022/11/30 13:05:48;;;;;;;3.42;1.17;;;18.20;99.90;;;;;;5051947;28;20029;-78
2022/11/30 13:08:19;;;;;;;3.72;1.00;;;18.40;99.90;;;;;;5043918;28;20466;-82
2022/11/30 13:10:48;;;;;;;11.85;1.17;;;18.10;99.90;;;;;;5033337;28;20053;-81
2022/11/30 13:13:25;;;;;;;4.68;0.90;;;18.10;99.90;;;;;;5053328;28;20044;-82
2022/11/30 13:15:52;;;;;;;6.32;0.82;;;17.50;99.90;;;;;;5041751;28;20174;-83
2022/11/30 13:18:21;;;;;;;3.53;1.05;;;17.60;99.90;;;;;;5061663;28;20045;-83